createdAt,value
2019-02-10T00:01:07.604Z,3.73
2019-02-10T00:03:36.684Z,4.67
2019-02-10T00:06:05.731Z,3.77
2019-02-10T00:08:34.731Z,4.23
2019-02-10T00:11:03.809Z,4.37
2019-02-10T00:13:34.376Z,4.37
2019-02-10T00:16:11.719Z,3.60
2019-02-10T00:18:40.761Z,3.60
2019-02-10T00:21:09.827Z,4.07
2019-02-10T00:23:38.319Z,4.20
2019-02-10T00:26:07.376Z,3.37
2019-02-10T00:28:36.443Z,5.33
2019-02-10T00:31:05.520Z,3.23
2019-02-10T00:33:34.584Z,4.70
2019-02-10T00:36:03.672Z,6.87
2019-02-10T00:38:32.715Z,5.73
2019-02-10T00:41:01.835Z,5.23
2019-02-10T00:43:31.311Z,6.17
2019-02-10T00:46:00.276Z,6.20
2019-02-10T00:48:29.381Z,7.63
2019-02-10T00:50:58.442Z,8.30
2019-02-10T00:53:27.459Z,9.00
2019-02-10T00:55:56.504Z,9.00
2019-02-10T00:58:25.672Z,8.50
2019-02-10T01:00:54.772Z,7.90
2019-02-10T01:03:24.293Z,8.97
2019-02-10T01:05:53.362Z,8.57
2019-02-10T01:08:22.393Z,9.63
2019-02-10T01:10:51.466Z,9.87
2019-02-10T01:13:20.540Z,11.63
2019-02-10T01:15:49.599Z,9.20
2019-02-10T01:18:18.711Z,10.23
2019-02-10T01:20:47.777Z,8.77
2019-02-10T01:23:16.842Z,9.47
2019-02-10T01:25:45.911Z,10.23
2019-02-10T01:28:14.966Z,9.77
2019-02-10T01:30:44.049Z,10.73
2019-02-10T01:33:13.103Z,10.23
2019-02-10T01:35:42.181Z,10.50
2019-02-10T01:38:11.218Z,11.17
2019-02-10T01:40:40.263Z,11.43
2019-02-10T01:43:09.309Z,10.93
2019-02-10T01:45:38.355Z,10.57
2019-02-10T01:48:07.420Z,10.13
2019-02-10T01:50:36.476Z,9.33
2019-02-10T01:53:05.539Z,10.20
2019-02-10T01:55:34.543Z,11.77
2019-02-10T01:58:03.527Z,10.90
2019-02-10T02:00:32.708Z,12.07
2019-02-10T02:03:01.780Z,14.63
2019-02-10T02:05:30.796Z,13.70
2019-02-10T02:07:59.998Z,13.33
2019-02-10T02:10:28.929Z,15.53
2019-02-10T02:12:57.922Z,14.50
2019-02-10T02:15:26.916Z,14.13
2019-02-10T02:17:55.975Z,12.83
2019-02-10T02:20:24.931Z,12.13
2019-02-10T02:22:53.919Z,12.77
2019-02-10T02:25:22.967Z,13.90
2019-02-10T02:27:52.001Z,13.80
2019-02-10T02:30:21.053Z,13.40
2019-02-10T02:32:50.207Z,11.93
2019-02-10T02:35:19.198Z,10.10
2019-02-10T02:37:48.160Z,11.00
2019-02-10T02:40:17.254Z,11.73
2019-02-10T02:42:46.418Z,12.70
2019-02-10T02:45:15.340Z,13.13
2019-02-10T02:47:44.295Z,12.77
2019-02-10T02:50:13.424Z,13.23
2019-02-10T02:52:42.395Z,13.33
2019-02-10T02:55:11.511Z,13.90
2019-02-10T02:57:40.572Z,13.50
2019-02-10T03:00:09.736Z,12.40
2019-02-10T03:02:38.763Z,11.10
2019-02-10T03:05:08.682Z,12.30
2019-02-10T03:07:37.782Z,13.37
2019-02-10T03:10:07.292Z,12.87
2019-02-10T03:12:36.292Z,13.33
2019-02-10T03:15:05.719Z,13.63
2019-02-10T03:17:34.860Z,12.83
2019-02-10T03:20:03.903Z,11.13
2019-02-10T03:22:32.870Z,12.47
2019-02-10T03:25:01.869Z,14.63
2019-02-10T03:27:30.851Z,13.90
2019-02-10T03:29:59.898Z,17.07
2019-02-10T03:32:28.865Z,16.53
2019-02-10T03:34:57.766Z,16.20
2019-02-10T03:37:27.507Z,14.50
2019-02-10T03:39:56.601Z,16.33
2019-02-10T03:42:25.729Z,14.30
2019-02-10T03:44:54.742Z,14.67
2019-02-10T03:47:23.831Z,13.97
2019-02-10T03:49:52.918Z,11.80
2019-02-10T03:52:21.871Z,12.70
2019-02-10T03:54:50.961Z,15.90
2019-02-10T03:57:19.945Z,13.63
2019-02-10T03:59:49.096Z,12.17
2019-02-10T04:02:18.285Z,12.53
2019-02-10T04:04:47.345Z,8.67
2019-02-10T04:07:16.309Z,6.90
2019-02-10T04:09:45.385Z,7.23
2019-02-10T04:12:14.473Z,6.30
2019-02-10T04:14:43.423Z,6.27
2019-02-10T04:17:12.499Z,5.70
2019-02-10T04:19:41.527Z,5.63
2019-02-10T04:22:10.595Z,6.10
2019-02-10T04:24:39.570Z,6.60
2019-02-10T04:27:08.546Z,8.47
2019-02-10T04:29:37.574Z,7.67
2019-02-10T04:32:06.556Z,6.90
2019-02-10T04:34:35.576Z,6.90
2019-02-10T04:37:04.646Z,7.03
2019-02-10T04:39:33.952Z,7.33
2019-02-10T04:42:02.815Z,6.17
2019-02-10T04:44:31.804Z,6.43
2019-02-10T04:47:00.763Z,6.93
2019-02-10T04:49:29.754Z,5.47
2019-02-10T04:51:58.796Z,6.17
2019-02-10T04:54:27.788Z,5.50
2019-02-10T04:56:56.864Z,5.23
2019-02-10T04:59:25.871Z,4.80
2019-02-10T05:01:54.947Z,5.10
2019-02-10T05:04:24.006Z,6.27
2019-02-10T05:06:52.998Z,5.20
2019-02-10T05:09:21.975Z,4.33
2019-02-10T05:11:50.956Z,6.07
2019-02-10T05:14:19.874Z,6.37
2019-02-10T05:16:48.796Z,4.83
2019-02-10T05:19:17.696Z,4.67
2019-02-10T05:21:46.688Z,4.90
2019-02-10T05:24:15.663Z,5.03
2019-02-10T05:26:44.731Z,4.60
2019-02-10T05:29:13.720Z,5.53
2019-02-10T05:31:42.727Z,6.00
2019-02-10T05:34:11.704Z,7.57
2019-02-10T05:36:40.670Z,6.33
2019-02-10T05:39:09.627Z,5.90
2019-02-10T05:41:38.564Z,5.80
2019-02-10T05:44:07.711Z,6.20
2019-02-10T05:46:36.829Z,5.93
2019-02-10T05:49:05.835Z,7.07
2019-02-10T05:51:34.785Z,6.40
2019-02-10T05:54:03.823Z,5.37
2019-02-10T05:56:32.667Z,5.97
2019-02-10T05:59:01.755Z,6.63
2019-02-10T06:02:32.640Z,5.93
2019-02-10T06:05:07.665Z,6.40
2019-02-10T06:07:36.535Z,5.67
2019-02-10T06:10:06.047Z,5.00
2019-02-10T06:12:35.088Z,5.27
2019-02-10T06:15:04.267Z,5.60
2019-02-10T06:17:33.383Z,5.40
2019-02-10T06:20:02.335Z,5.40
2019-02-10T06:22:31.229Z,5.17
2019-02-10T06:25:00.283Z,5.30
2019-02-10T06:27:29.354Z,5.43
2019-02-10T06:29:58.262Z,5.50
2019-02-10T06:32:27.287Z,5.43
2019-02-10T06:34:56.303Z,5.63
2019-02-10T06:37:25.328Z,4.80
2019-02-10T06:39:54.305Z,5.40
2019-02-10T06:42:23.260Z,5.30
2019-02-10T06:44:52.211Z,6.10
2019-02-10T06:47:21.194Z,5.50
2019-02-10T06:49:50.088Z,5.77
2019-02-10T06:52:19.096Z,5.93
2019-02-10T06:54:54.280Z,5.40
2019-02-10T06:57:26.772Z,5.50
2019-02-10T07:00:25.355Z,5.47
2019-02-10T07:03:46.618Z,5.50
2019-02-10T07:06:15.919Z,5.60
2019-02-10T07:08:44.903Z,6.13
2019-02-10T07:11:13.938Z,6.20
2019-02-10T07:13:45.374Z,5.83
2019-02-10T07:16:56.767Z,6.30
2019-02-10T07:20:15.514Z,5.73
2019-02-10T07:23:26.079Z,6.57
2019-02-10T07:26:18.839Z,5.53
2019-02-10T07:29:20.331Z,5.03
2019-02-10T07:32:01.347Z,5.47
2019-02-10T07:35:01.764Z,5.63
2019-02-10T07:37:53.705Z,5.60
2019-02-10T07:41:02.899Z,5.97
2019-02-10T07:44:01.417Z,7.03
2019-02-10T07:46:47.315Z,7.00
2019-02-10T07:49:39.519Z,7.53
2019-02-10T07:52:32.546Z,7.37
2019-02-10T07:55:41.384Z,7.37
2019-02-10T07:58:52.475Z,7.83
2019-02-10T08:01:48.912Z,7.90
2019-02-10T08:04:41.630Z,8.00
2019-02-10T08:07:30.178Z,8.33
2019-02-10T08:10:49.255Z,8.50
2019-02-10T08:13:52.355Z,8.20
2019-02-10T08:16:46.515Z,8.00
2019-02-10T08:19:48.254Z,8.00
2019-02-10T08:22:59.007Z,9.10
2019-02-10T08:26:12.311Z,8.30
2019-02-10T08:29:19.743Z,8.57
2019-02-10T08:32:14.538Z,8.27
2019-02-10T08:34:54.275Z,8.83
2019-02-10T08:38:02.666Z,8.70
2019-02-10T08:41:07.871Z,8.27
2019-02-10T08:44:10.207Z,8.20
2019-02-10T08:47:16.055Z,8.37
2019-02-10T08:50:32.144Z,8.73
2019-02-10T08:53:08.147Z,9.37
2019-02-10T08:55:37.127Z,9.67
2019-02-10T08:58:06.223Z,9.57
2019-02-10T09:00:35.428Z,10.93
2019-02-10T09:03:04.800Z,10.43
2019-02-10T09:05:33.765Z,10.37
2019-02-10T09:08:02.858Z,11.67
2019-02-10T09:10:31.808Z,12.87
2019-02-10T09:13:00.767Z,12.93
2019-02-10T09:15:29.818Z,12.10
2019-02-10T09:17:58.826Z,13.90
2019-02-10T09:20:27.922Z,12.20
2019-02-10T09:22:56.905Z,11.23
2019-02-10T09:25:26.026Z,13.10
2019-02-10T09:27:54.966Z,14.57
2019-02-10T09:30:24.043Z,15.07
2019-02-10T09:32:52.970Z,13.07
2019-02-10T09:35:21.924Z,13.43
2019-02-10T09:37:50.984Z,12.43
2019-02-10T09:40:20.050Z,12.57
2019-02-10T09:42:49.035Z,11.23
2019-02-10T09:45:18.083Z,11.17
2019-02-10T09:47:47.116Z,9.87
2019-02-10T09:50:18.207Z,8.43
2019-02-10T09:52:47.148Z,8.43
2019-02-10T09:55:16.107Z,7.87
2019-02-10T09:57:45.086Z,7.10
2019-02-10T10:00:14.545Z,6.87
2019-02-10T10:02:43.605Z,6.20
2019-02-10T10:05:12.986Z,5.33
2019-02-10T10:07:42.030Z,6.07
2019-02-10T10:10:12.270Z,5.20
2019-02-10T10:12:41.246Z,4.23
2019-02-10T10:15:12.283Z,5.00
2019-02-10T10:17:41.335Z,4.93
2019-02-10T10:20:12.143Z,4.77
2019-02-10T10:22:41.203Z,6.17
2019-02-10T10:25:10.276Z,5.30
2019-02-10T10:27:39.323Z,3.57
2019-02-10T10:30:11.029Z,3.57
2019-02-10T10:32:39.907Z,3.40
2019-02-10T10:35:08.947Z,3.27
2019-02-10T10:37:38.022Z,2.30
2019-02-10T10:40:07.551Z,2.10
2019-02-10T10:42:36.683Z,1.80
2019-02-10T10:45:06.143Z,2.03
2019-02-10T10:47:35.132Z,1.63
2019-02-10T10:50:04.392Z,1.60
2019-02-10T10:52:33.510Z,1.47
2019-02-10T10:55:02.539Z,1.40
2019-02-10T10:57:31.647Z,1.40
2019-02-10T11:00:00.636Z,1.50
2019-02-10T11:02:29.639Z,1.27
2019-02-10T11:04:58.640Z,1.57
2019-02-10T11:07:27.695Z,1.40
2019-02-10T11:09:56.778Z,1.27
2019-02-10T11:12:25.915Z,1.07
2019-02-10T11:14:54.888Z,1.10
2019-02-10T11:17:23.840Z,1.57
2019-02-10T11:19:52.732Z,1.20
2019-02-10T11:22:21.803Z,1.30
2019-02-10T11:24:50.798Z,1.80
2019-02-10T11:27:19.794Z,1.57
2019-02-10T11:29:48.703Z,1.93
2019-02-10T11:32:17.663Z,1.83
2019-02-10T11:34:46.703Z,1.90
2019-02-10T11:37:15.762Z,2.17
2019-02-10T11:39:44.872Z,2.00
2019-02-10T11:42:13.993Z,2.23
2019-02-10T11:44:43.068Z,2.63
2019-02-10T11:47:12.178Z,2.07
2019-02-10T11:49:41.264Z,2.77
2019-02-10T11:52:10.293Z,2.60
2019-02-10T11:54:39.287Z,2.57
2019-02-10T11:57:08.363Z,2.03
2019-02-10T11:59:37.464Z,3.30
2019-02-10T12:02:06.664Z,2.40
2019-02-10T12:04:35.703Z,2.07
2019-02-10T12:07:04.780Z,2.80
2019-02-10T12:09:33.843Z,3.53
2019-02-10T12:12:02.879Z,2.27
2019-02-10T12:14:31.929Z,2.30
2019-02-10T12:17:00.990Z,3.17
2019-02-10T12:19:29.978Z,2.37
2019-02-10T12:21:58.891Z,2.20
2019-02-10T12:24:27.903Z,2.53
2019-02-10T12:26:56.799Z,2.17
2019-02-10T12:29:25.867Z,2.10
2019-02-10T12:31:54.815Z,1.80
2019-02-10T12:34:23.895Z,2.20
2019-02-10T12:36:52.829Z,1.30
2019-02-10T12:39:21.932Z,1.57
2019-02-10T12:41:50.815Z,1.80
2019-02-10T12:44:19.775Z,1.47
2019-02-10T12:46:48.852Z,2.50
2019-02-10T12:49:17.885Z,1.57
2019-02-10T12:51:46.878Z,1.40
2019-02-10T12:54:15.932Z,1.70
2019-02-10T12:56:44.963Z,1.33
2019-02-10T12:59:14.022Z,1.70
2019-02-10T13:01:43.047Z,1.70
2019-02-10T13:04:12.032Z,1.50
2019-02-10T13:06:41.067Z,1.63
2019-02-10T13:09:12.803Z,1.90
2019-02-10T13:11:42.110Z,1.90
2019-02-10T13:14:11.192Z,1.70
2019-02-10T13:16:40.071Z,1.87
2019-02-10T13:19:09.164Z,1.83
2019-02-10T13:21:38.122Z,1.80
2019-02-10T13:24:07.188Z,1.43
2019-02-10T13:26:36.240Z,1.67
2019-02-10T13:29:05.287Z,1.83
2019-02-10T13:31:34.291Z,1.80
2019-02-10T13:34:03.323Z,1.50
2019-02-10T13:36:32.370Z,1.40
2019-02-10T13:39:01.343Z,1.37
2019-02-10T13:41:35.219Z,1.37
2019-02-10T13:44:05.380Z,1.50
2019-02-10T13:46:34.438Z,1.90
2019-02-10T13:49:03.571Z,2.07
2019-02-10T13:51:32.558Z,1.40
2019-02-10T13:54:01.516Z,2.03
2019-02-10T13:56:30.583Z,1.43
2019-02-10T13:58:59.570Z,1.10
2019-02-10T14:01:28.491Z,1.40
2019-02-10T14:03:57.556Z,1.00
2019-02-10T14:06:26.521Z,1.00
2019-02-10T14:08:55.403Z,1.10
2019-02-10T14:11:24.405Z,0.83
2019-02-10T14:13:54.496Z,0.93
2019-02-10T14:16:23.717Z,1.00
2019-02-10T14:18:52.652Z,1.27
2019-02-10T14:21:21.649Z,1.83
2019-02-10T14:23:50.740Z,1.30
2019-02-10T14:26:19.650Z,1.30
2019-02-10T14:28:48.628Z,1.43
2019-02-10T14:31:17.679Z,1.10
2019-02-10T14:33:46.668Z,1.10
2019-02-10T14:36:15.743Z,1.17
2019-02-10T14:38:44.793Z,1.40
2019-02-10T14:41:13.747Z,1.10
2019-02-10T14:43:42.694Z,1.07
2019-02-10T14:46:11.647Z,1.10
2019-02-10T14:48:40.879Z,1.30
2019-02-10T14:51:09.899Z,1.40
2019-02-10T14:53:38.819Z,1.07
2019-02-10T14:56:07.835Z,0.90
2019-02-10T14:58:43.216Z,1.23
2019-02-10T15:01:09.000Z,1.20
2019-02-10T15:03:38.000Z,1.17
2019-02-10T15:06:07.083Z,1.20
2019-02-10T15:08:36.043Z,1.40
2019-02-10T15:11:05.109Z,1.57
2019-02-10T15:13:34.131Z,2.10
2019-02-10T15:16:03.220Z,1.90
2019-02-10T15:18:32.143Z,1.70
2019-02-10T15:21:01.053Z,1.70
2019-02-10T15:23:30.035Z,1.70
2019-02-10T15:25:59.910Z,2.00
2019-02-10T15:28:28.820Z,1.13
2019-02-10T15:30:57.830Z,1.47
2019-02-10T15:33:26.918Z,1.10
2019-02-10T15:35:56.018Z,1.20
2019-02-10T15:38:25.007Z,1.00
2019-02-10T15:40:54.086Z,1.40
2019-02-10T15:43:23.105Z,1.50
2019-02-10T15:45:52.125Z,1.50
2019-02-10T15:48:21.062Z,1.83
2019-02-10T15:50:50.078Z,1.17
2019-02-10T15:53:19.153Z,1.63
2019-02-10T15:55:48.111Z,2.07
2019-02-10T15:58:17.016Z,2.57
2019-02-10T16:00:46.046Z,1.70
2019-02-10T16:03:14.943Z,3.47
2019-02-10T16:05:43.952Z,1.90
2019-02-10T16:08:12.934Z,2.00
2019-02-10T16:10:41.917Z,2.73
2019-02-10T16:13:10.854Z,2.47
2019-02-10T16:15:39.836Z,2.50
2019-02-10T16:18:08.774Z,2.87
2019-02-10T16:20:37.655Z,1.87
2019-02-10T16:23:06.683Z,1.23
2019-02-10T16:25:35.708Z,1.37
2019-02-10T16:28:04.750Z,1.30
2019-02-10T16:30:33.811Z,1.50
2019-02-10T16:33:02.947Z,1.40
2019-02-10T16:35:31.930Z,1.13
2019-02-10T16:38:00.947Z,1.00
2019-02-10T16:40:29.904Z,1.60
2019-02-10T16:42:58.908Z,1.43
2019-02-10T16:45:27.852Z,1.67
2019-02-10T16:47:56.711Z,1.50
2019-02-10T16:50:25.710Z,1.70
2019-02-10T16:52:54.624Z,1.20
2019-02-10T16:55:23.674Z,2.03
2019-02-10T16:57:54.476Z,1.27
2019-02-10T17:00:23.486Z,1.40
2019-02-10T17:02:52.505Z,0.90
2019-02-10T17:05:21.566Z,1.10
2019-02-10T17:07:50.531Z,0.90
2019-02-10T17:10:19.614Z,1.10
2019-02-10T17:12:48.571Z,1.20
2019-02-10T17:15:17.537Z,1.30
2019-02-10T17:17:46.465Z,1.40
2019-02-10T17:20:15.515Z,1.60
2019-02-10T17:22:44.499Z,1.00
2019-02-10T17:25:14.612Z,1.33
2019-02-10T17:27:43.663Z,1.30
2019-02-10T17:30:13.643Z,1.43
2019-02-10T17:32:42.695Z,1.53
2019-02-10T17:35:11.890Z,2.13
2019-02-10T17:37:40.937Z,1.40
2019-02-10T17:40:16.756Z,1.40
2019-02-10T17:42:45.631Z,1.30
2019-02-10T17:45:14.676Z,1.40
2019-02-10T17:47:43.675Z,1.57
2019-02-10T17:50:12.864Z,1.93
2019-02-10T17:52:41.920Z,1.77
2019-02-10T17:55:11.178Z,1.60
2019-02-10T17:57:40.339Z,2.57
2019-02-10T18:00:10.587Z,2.57
2019-02-10T18:02:39.631Z,1.77
2019-02-10T18:05:08.877Z,1.87
2019-02-10T18:07:37.996Z,2.30
2019-02-10T18:10:07.971Z,2.10
2019-02-10T18:12:36.998Z,1.90
2019-02-10T18:15:37.487Z,2.27
2019-02-10T18:18:31.399Z,2.27
2019-02-10T18:21:18.126Z,2.93
2019-02-10T18:24:24.250Z,2.57
2019-02-10T18:27:06.607Z,2.47
2019-02-10T18:29:44.412Z,3.10
2019-02-10T18:32:41.591Z,2.33
2019-02-10T18:35:32.824Z,3.20
2019-02-10T18:38:23.822Z,2.00
2019-02-10T18:41:11.727Z,2.07
2019-02-10T18:44:05.623Z,2.40
2019-02-10T18:46:59.876Z,2.53
2019-02-10T18:49:37.474Z,2.40
2019-02-10T18:52:40.996Z,2.17
2019-02-10T18:55:38.330Z,2.20
2019-02-10T18:58:29.248Z,2.60
2019-02-10T19:01:10.619Z,2.70
2019-02-10T19:03:57.443Z,2.40
2019-02-10T19:06:44.487Z,2.40
2019-02-10T19:09:44.866Z,2.37
2019-02-10T19:12:19.206Z,2.83
2019-02-10T19:15:05.819Z,3.50
2019-02-10T19:17:57.010Z,2.80
2019-02-10T19:20:51.343Z,2.10
2019-02-10T19:23:48.779Z,2.10
2019-02-10T19:26:26.043Z,1.90
2019-02-10T19:29:12.640Z,1.97
2019-02-10T19:31:57.219Z,2.00
2019-02-10T19:34:43.991Z,2.67
2019-02-10T19:37:30.771Z,2.33
2019-02-10T19:40:18.862Z,2.57
2019-02-10T19:43:06.822Z,3.50
2019-02-10T19:45:51.837Z,2.40
2019-02-10T19:48:27.517Z,2.00
2019-02-10T19:51:05.792Z,2.07
2019-02-10T19:53:48.067Z,1.80
2019-02-10T19:56:51.452Z,2.63
2019-02-10T19:59:29.129Z,3.30
2019-02-10T20:02:10.302Z,2.40
2019-02-10T20:05:16.656Z,2.20
2019-02-10T20:08:01.355Z,2.53
2019-02-10T20:10:41.356Z,2.53
2019-02-10T20:13:28.303Z,2.53
2019-02-10T20:16:02.090Z,3.07
2019-02-10T20:18:50.061Z,3.87
2019-02-10T20:21:35.015Z,2.93
2019-02-10T20:24:18.014Z,4.17
2019-02-10T20:27:06.062Z,4.77
2019-02-10T20:29:56.441Z,3.93
2019-02-10T20:32:55.135Z,4.33
2019-02-10T20:35:45.968Z,4.10
2019-02-10T20:38:35.135Z,4.10
2019-02-10T20:41:18.906Z,3.03
2019-02-10T20:43:54.489Z,2.33
2019-02-10T20:46:31.887Z,2.07
2019-02-10T20:49:07.627Z,2.50
2019-02-10T20:51:55.777Z,3.57
2019-02-10T20:54:31.349Z,2.87
2019-02-10T20:57:22.738Z,2.80
2019-02-10T21:00:04.334Z,2.83
2019-02-10T21:02:47.751Z,3.70
2019-02-10T21:05:24.524Z,4.37
2019-02-10T21:08:12.487Z,3.33
2019-02-10T21:11:00.515Z,4.30
2019-02-10T21:13:44.535Z,3.97
2019-02-10T21:16:32.567Z,2.40
2019-02-10T21:19:32.631Z,3.53
2019-02-10T21:22:11.226Z,3.23
2019-02-10T21:24:49.855Z,3.07
2019-02-10T21:27:41.373Z,3.17
2019-02-10T21:30:23.656Z,2.00
2019-02-10T21:33:11.685Z,2.90
2019-02-10T21:36:05.587Z,2.73
2019-02-10T21:38:52.751Z,3.03
2019-02-10T21:41:32.655Z,2.43
2019-02-10T21:44:14.335Z,2.60
2019-02-10T21:47:00.219Z,2.57
2019-02-10T21:49:29.356Z,1.90
2019-02-10T21:51:58.223Z,2.87
2019-02-10T21:54:27.219Z,2.77
2019-02-10T21:56:56.290Z,2.03
2019-02-10T21:59:25.188Z,3.13
2019-02-10T22:01:54.153Z,3.13
2019-02-10T22:04:23.136Z,2.30
2019-02-10T22:06:52.139Z,3.97
2019-02-10T22:09:21.182Z,3.53
2019-02-10T22:11:50.043Z,3.00
2019-02-10T22:14:19.133Z,3.60
2019-02-10T22:16:48.031Z,3.13
2019-02-10T22:19:17.129Z,3.80
2019-02-10T22:21:46.241Z,3.47
2019-02-10T22:24:15.166Z,3.63
2019-02-10T22:26:44.243Z,4.03
2019-02-10T22:29:13.219Z,4.07
2019-02-10T22:31:42.187Z,3.83
2019-02-10T22:34:11.175Z,3.63
2019-02-10T22:36:40.144Z,4.30
2019-02-10T22:39:09.219Z,4.27
2019-02-10T22:41:38.266Z,5.33
2019-02-10T22:44:07.286Z,4.73
2019-02-10T22:46:36.267Z,3.40
2019-02-10T22:49:05.339Z,3.97
2019-02-10T22:51:34.306Z,4.60
2019-02-10T22:54:03.355Z,4.30
2019-02-10T22:56:32.322Z,5.03
2019-02-10T22:59:01.359Z,2.93
2019-02-10T23:01:30.522Z,3.50
2019-02-10T23:03:59.583Z,4.47
2019-02-10T23:06:28.656Z,3.80
2019-02-10T23:08:57.699Z,5.13
2019-02-10T23:11:26.771Z,4.13
2019-02-10T23:13:55.764Z,3.83
2019-02-10T23:16:24.754Z,3.60
2019-02-10T23:18:53.751Z,4.70
2019-02-10T23:21:22.766Z,3.10
2019-02-10T23:23:51.690Z,2.87
2019-02-10T23:26:20.723Z,4.27
2019-02-10T23:28:49.628Z,3.03
2019-02-10T23:31:18.687Z,2.83
2019-02-10T23:33:47.589Z,3.43
2019-02-10T23:36:16.644Z,3.40
2019-02-10T23:38:45.624Z,3.87
2019-02-10T23:41:14.688Z,3.37
2019-02-10T23:43:43.757Z,4.27
2019-02-10T23:46:12.828Z,3.60
2019-02-10T23:48:41.943Z,3.37
2019-02-10T23:51:11.003Z,3.40
2019-02-10T23:53:39.979Z,3.60
2019-02-10T23:56:08.978Z,4.03
2019-02-10T23:58:37.999Z,3.87
